Terminal Aerodrome Forecast
Issued by NWS

Home | Current Version | Previous Version | Text Only | Print | Product List | Glossary On
Versions: 1 2 3 4 5 6 7 8 9 10 11 12 13 14 15 16 17 18 19
973
FTUS46 KEKA 271730
TAFUKI
TAF
KUKI 271730Z 2718/2818 VRB03KT P6SM SCT010
     FM272000 12006KT P6SM SKC
     FM280900 VRB03KT P6SM BKN010=

USA.gov is the U.S. government's official web portal to all federal, state and local government web resources and services.